createdAt,value
2017-11-07T00:01:00.942Z,19.93
2017-11-07T00:03:29.239Z,17.37
2017-11-07T00:05:56.805Z,16.93
2017-11-07T00:08:24.341Z,15.57
2017-11-07T00:10:51.903Z,15.60
2017-11-07T00:13:19.444Z,18.40
2017-11-07T00:15:47.772Z,16.83
2017-11-07T00:18:15.306Z,17.53
2017-11-07T00:20:42.867Z,17.40
2017-11-07T00:23:10.403Z,18.63
2017-11-07T00:25:38.760Z,17.77
2017-11-07T00:28:06.310Z,19.10
2017-11-07T00:30:33.863Z,17.93
2017-11-07T00:33:01.412Z,18.50
2017-11-07T00:35:28.974Z,17.20
2017-11-07T00:37:56.504Z,15.60
2017-11-07T00:40:24.058Z,18.20
2017-11-07T00:42:51.601Z,17.53
2017-11-07T00:45:19.939Z,16.70
2017-11-07T00:47:47.473Z,15.80
2017-11-07T00:50:15.031Z,15.73
2017-11-07T00:52:42.574Z,17.80
2017-11-07T00:55:10.127Z,19.93
2017-11-07T00:57:38.420Z,19.00
2017-11-07T01:00:06.020Z,17.47
2017-11-07T01:02:33.567Z,18.37
2017-11-07T01:05:01.263Z,16.67
2017-11-07T01:07:29.579Z,18.87
2017-11-07T01:09:57.549Z,18.73
2017-11-07T01:12:25.107Z,18.50
2017-11-07T01:14:52.666Z,19.67
2017-11-07T01:17:20.530Z,19.70
2017-11-07T01:19:48.425Z,19.90
2017-11-07T01:22:16.124Z,19.30
2017-11-07T01:24:43.688Z,19.77
2017-11-07T01:27:11.223Z,18.57
2017-11-07T01:29:38.841Z,18.53
2017-11-07T01:32:06.384Z,19.53
2017-11-07T01:34:34.683Z,18.57
2017-11-07T01:37:02.416Z,18.60
2017-11-07T01:39:29.968Z,18.73
2017-11-07T01:41:57.528Z,17.57
2017-11-07T01:44:25.061Z,19.80
2017-11-07T01:46:52.630Z,17.73
2017-11-07T01:49:20.165Z,17.43
2017-11-07T01:51:47.727Z,17.77
2017-11-07T01:54:15.275Z,16.80
2017-11-07T01:56:42.823Z,15.87
2017-11-07T01:59:10.355Z,18.27
2017-11-07T02:01:37.916Z,18.13
2017-11-07T02:04:06.227Z,18.65
2017-11-07T02:06:33.778Z,16.90
2017-11-07T02:09:01.316Z,18.17
2017-11-07T02:11:29.648Z,17.33
2017-11-07T02:13:57.190Z,18.80
2017-11-07T02:16:24.759Z,18.27
2017-11-07T02:18:52.305Z,17.03
2017-11-07T02:21:19.860Z,20.33
2017-11-07T02:23:47.391Z,16.33
2017-11-07T02:26:15.719Z,15.47
2017-11-07T02:28:43.257Z,16.10
2017-11-07T02:31:10.826Z,15.27
2017-11-07T02:33:38.359Z,15.30
2017-11-07T02:36:06.675Z,14.73
2017-11-07T02:38:34.207Z,14.17
2017-11-07T02:41:01.760Z,13.20
2017-11-07T02:43:30.060Z,12.70
2017-11-07T02:45:57.622Z,12.23
2017-11-07T02:48:25.151Z,14.13
2017-11-07T02:50:53.480Z,12.97
2017-11-07T02:53:21.019Z,14.10
2017-11-07T02:55:48.575Z,15.10
2017-11-07T02:58:16.115Z,17.13
2017-11-07T03:00:43.675Z,17.07
2017-11-07T03:03:11.212Z,15.07
2017-11-07T03:05:38.776Z,14.97
2017-11-07T03:08:07.079Z,14.30
2017-11-07T03:10:34.645Z,12.93
2017-11-07T03:13:02.179Z,14.63
2017-11-07T03:15:30.502Z,14.30
2017-11-07T03:17:58.036Z,14.90
2017-11-07T03:20:25.597Z,14.57
2017-11-07T03:22:53.138Z,14.50
2017-11-07T03:25:21.470Z,13.37
2017-11-07T03:27:49.009Z,14.50
2017-11-07T03:30:16.573Z,14.03
2017-11-07T03:32:44.107Z,15.13
2017-11-07T03:35:11.674Z,13.40
2017-11-07T03:37:39.208Z,14.97
2017-11-07T03:40:07.540Z,13.63
2017-11-07T03:42:35.069Z,12.30
2017-11-07T03:45:02.600Z,12.53
2017-11-07T03:47:30.933Z,11.90
2017-11-07T03:49:58.467Z,12.63
2017-11-07T03:52:26.026Z,10.73
2017-11-07T03:54:53.572Z,11.60
2017-11-07T03:57:21.891Z,11.97
2017-11-07T03:59:49.418Z,11.20
2017-11-07T04:02:16.967Z,11.40
2017-11-07T04:04:44.503Z,11.80
2017-11-07T04:07:12.052Z,10.90
2017-11-07T04:09:39.595Z,11.50
2017-11-07T04:12:07.157Z,9.93
2017-11-07T04:14:34.694Z,10.50
2017-11-07T04:17:02.244Z,9.40
2017-11-07T04:19:29.775Z,11.27
2017-11-07T04:21:58.103Z,11.03
2017-11-07T04:24:25.634Z,9.33
2017-11-07T04:26:53.196Z,10.20
2017-11-07T04:29:20.732Z,10.37
2017-11-07T04:31:49.056Z,9.67
2017-11-07T04:34:16.595Z,10.40
2017-11-07T04:36:44.155Z,9.50
2017-11-07T04:39:11.689Z,8.93
2017-11-07T04:41:40.017Z,8.40
2017-11-07T04:44:07.543Z,8.90
2017-11-07T04:46:35.098Z,8.37
2017-11-07T04:49:03.387Z,7.93
2017-11-07T04:51:30.948Z,8.00
2017-11-07T04:53:58.538Z,7.10
2017-11-07T04:56:26.439Z,8.63
2017-11-07T04:58:54.745Z,8.40
2017-11-07T05:01:22.301Z,8.47
2017-11-07T05:03:50.592Z,8.80
2017-11-07T05:06:21.635Z,7.70
2017-11-07T05:08:49.213Z,7.80
2017-11-07T05:11:16.771Z,7.87
2017-11-07T05:13:44.303Z,8.50
2017-11-07T05:16:11.855Z,8.17
2017-11-07T05:18:39.395Z,8.70
2017-11-07T05:21:06.960Z,8.30
2017-11-07T05:23:35.314Z,8.37
2017-11-07T05:26:02.884Z,7.80
2017-11-07T05:28:30.412Z,8.40
2017-11-07T05:30:57.964Z,8.60
2017-11-07T05:33:25.491Z,7.60
2017-11-07T05:35:53.055Z,7.50
2017-11-07T05:38:22.198Z,8.50
2017-11-07T05:40:50.899Z,7.80
2017-11-07T05:43:19.229Z,8.90
2017-11-07T05:45:46.780Z,7.93
2017-11-07T05:48:14.314Z,8.23
2017-11-07T05:50:41.870Z,8.40
2017-11-07T05:53:09.401Z,8.10
2017-11-07T05:55:36.956Z,7.10
2017-11-07T05:58:04.491Z,7.70
2017-11-07T06:00:32.019Z,7.43
2017-11-07T06:03:00.336Z,7.40
2017-11-07T06:05:27.875Z,7.70
2017-11-07T06:07:55.424Z,7.50
2017-11-07T06:10:23.722Z,7.50
2017-11-07T06:12:51.290Z,7.90
2017-11-07T06:15:18.827Z,7.13
2017-11-07T06:17:46.381Z,8.60
2017-11-07T06:20:13.923Z,7.30
2017-11-07T06:22:41.493Z,7.30
2017-11-07T06:25:09.796Z,6.40
2017-11-07T06:27:37.368Z,6.60
2017-11-07T06:30:04.902Z,6.57
2017-11-07T06:32:33.231Z,7.20
2017-11-07T06:35:00.759Z,7.20
2017-11-07T06:37:28.321Z,7.47
2017-11-07T06:39:55.851Z,7.00
2017-11-07T06:42:24.184Z,7.43
2017-11-07T06:44:51.708Z,7.03
2017-11-07T06:47:19.264Z,8.00
2017-11-07T06:49:46.794Z,9.10
2017-11-07T06:52:15.117Z,8.20
2017-11-07T06:54:42.651Z,7.67
2017-11-07T06:57:10.980Z,7.00
2017-11-07T06:59:38.520Z,8.03
2017-11-07T07:02:06.078Z,8.73
2017-11-07T07:04:33.603Z,7.23
2017-11-07T07:07:01.923Z,8.90
2017-11-07T07:09:29.464Z,8.70
2017-11-07T07:11:57.024Z,7.57
2017-11-07T07:14:24.547Z,8.40
2017-11-07T07:16:52.875Z,6.63
2017-11-07T07:19:20.409Z,7.93
2017-11-07T07:21:47.961Z,7.43
2017-11-07T07:24:15.495Z,8.20
2017-11-07T07:26:43.059Z,7.70
2017-11-07T07:29:10.582Z,7.50
2017-11-07T07:31:38.128Z,7.50
2017-11-07T07:34:05.655Z,6.77
2017-11-07T07:36:33.950Z,7.00
2017-11-07T07:39:01.499Z,7.60
2017-11-07T07:41:29.034Z,8.40
2017-11-07T07:43:57.362Z,6.17
2017-11-07T07:46:24.904Z,6.80
2017-11-07T07:48:52.468Z,6.90
2017-11-07T07:51:20.052Z,8.40
2017-11-07T07:53:47.603Z,6.80
2017-11-07T07:56:15.137Z,8.03
2017-11-07T07:58:42.697Z,7.50
2017-11-07T08:01:10.228Z,7.80
2017-11-07T08:03:37.789Z,7.77
2017-11-07T08:06:05.326Z,7.63
2017-11-07T08:08:32.882Z,7.63
2017-11-07T08:11:00.421Z,7.90
2017-11-07T08:13:27.972Z,8.37
2017-11-07T08:15:55.499Z,7.33
2017-11-07T08:18:23.816Z,7.87
2017-11-07T08:20:51.343Z,8.10
2017-11-07T08:23:24.688Z,7.90
2017-11-07T08:25:52.230Z,8.50
2017-11-07T08:28:19.784Z,8.50
2017-11-07T08:30:47.333Z,9.07
2017-11-07T08:33:14.881Z,8.73
2017-11-07T08:35:42.440Z,8.27
2017-11-07T08:38:09.976Z,9.13
2017-11-07T08:40:37.541Z,8.53
2017-11-07T08:43:05.835Z,8.10
2017-11-07T08:45:34.150Z,9.57
2017-11-07T08:48:01.679Z,8.97
2017-11-07T08:50:29.231Z,7.33
2017-11-07T08:52:56.766Z,7.93
2017-11-07T08:55:24.327Z,7.63
2017-11-07T08:57:51.851Z,10.57
2017-11-07T09:00:19.411Z,9.40
2017-11-07T09:02:46.956Z,9.30
2017-11-07T09:05:14.507Z,9.27
2017-11-07T09:07:42.045Z,9.10
2017-11-07T09:10:10.366Z,9.20
2017-11-07T09:12:37.899Z,7.70
2017-11-07T09:15:05.466Z,9.90
2017-11-07T09:17:32.990Z,9.30
2017-11-07T09:20:01.315Z,9.70
2017-11-07T09:22:28.847Z,8.90
2017-11-07T09:24:56.403Z,9.23
2017-11-07T09:27:23.936Z,9.53
2017-11-07T09:29:51.464Z,9.17
2017-11-07T09:32:19.791Z,9.97
2017-11-07T09:34:48.087Z,9.50
2017-11-07T09:37:15.644Z,8.70
2017-11-07T09:39:43.171Z,9.40
2017-11-07T09:42:10.719Z,8.57
2017-11-07T09:44:38.250Z,8.77
2017-11-07T09:47:05.807Z,9.30
2017-11-07T09:49:33.335Z,8.60
2017-11-07T09:52:00.901Z,8.50
2017-11-07T09:54:28.426Z,9.33
2017-11-07T09:56:55.987Z,8.93
2017-11-07T09:59:23.514Z,9.07
2017-11-07T10:01:51.076Z,9.83
2017-11-07T10:04:18.618Z,8.23
2017-11-07T10:06:46.187Z,8.33
2017-11-07T10:09:13.712Z,9.90
2017-11-07T10:11:41.263Z,7.97
2017-11-07T10:14:09.553Z,8.47
2017-11-07T10:16:37.107Z,7.97
2017-11-07T10:19:04.640Z,8.10
2017-11-07T10:21:32.201Z,7.63
2017-11-07T10:23:59.736Z,8.50
2017-11-07T10:26:27.263Z,8.80
2017-11-07T10:28:54.808Z,8.47
2017-11-07T10:31:22.348Z,8.80
2017-11-07T10:33:50.667Z,8.70
2017-11-07T10:36:18.194Z,8.70
2017-11-07T10:38:46.524Z,9.83
2017-11-07T10:41:14.042Z,9.00
2017-11-07T10:43:41.603Z,9.83
2017-11-07T10:46:09.135Z,9.77
2017-11-07T10:48:37.456Z,8.50
2017-11-07T10:51:04.991Z,9.17
2017-11-07T10:53:33.306Z,8.13
2017-11-07T10:56:00.839Z,8.80
2017-11-07T10:58:28.391Z,8.67
2017-11-07T11:00:55.919Z,8.50
2017-11-07T11:03:23.466Z,8.77
2017-11-07T11:05:51.000Z,8.40
2017-11-07T11:08:18.559Z,9.10
2017-11-07T11:10:46.088Z,8.20
2017-11-07T11:13:13.638Z,8.10
2017-11-07T11:15:41.931Z,8.93
2017-11-07T11:18:09.484Z,8.93
2017-11-07T11:20:37.024Z,8.53
2017-11-07T11:23:05.338Z,8.70
2017-11-07T11:25:32.863Z,8.87
2017-11-07T11:28:01.236Z,8.10
2017-11-07T11:30:28.758Z,8.23
2017-11-07T11:32:56.313Z,7.07
2017-11-07T11:35:23.848Z,8.63
2017-11-07T11:37:51.402Z,8.30
2017-11-07T11:40:18.930Z,8.80
2017-11-07T11:42:46.491Z,8.10
2017-11-07T11:45:14.020Z,8.93
2017-11-07T11:47:41.579Z,8.40
2017-11-07T11:50:09.107Z,9.67
2017-11-07T11:52:36.655Z,8.47
2017-11-07T11:55:04.187Z,8.80
2017-11-07T11:57:31.762Z,8.37
2017-11-07T12:00:00.055Z,8.90
2017-11-07T12:02:27.608Z,7.90
2017-11-07T12:04:55.147Z,7.50
2017-11-07T12:07:22.702Z,7.57
2017-11-07T12:09:50.231Z,8.27
2017-11-07T12:12:17.781Z,7.50
2017-11-07T12:14:45.311Z,7.87
2017-11-07T12:17:12.863Z,8.50
2017-11-07T12:19:41.152Z,8.10
2017-11-07T12:22:08.705Z,7.73
2017-11-07T12:24:36.242Z,8.00
2017-11-07T12:27:04.581Z,8.67
2017-11-07T12:29:32.103Z,7.40
2017-11-07T12:31:59.636Z,8.23
2017-11-07T12:34:27.972Z,7.63
2017-11-07T12:36:55.504Z,7.73
2017-11-07T12:39:23.060Z,7.93
2017-11-07T12:41:50.595Z,9.20
2017-11-07T12:44:18.924Z,7.57
2017-11-07T12:46:46.450Z,9.17
2017-11-07T12:49:14.767Z,8.70
2017-11-07T12:51:54.244Z,9.03
2017-11-07T12:54:21.795Z,9.17
2017-11-07T12:56:49.327Z,8.87
2017-11-07T12:59:16.884Z,8.43
2017-11-07T13:01:44.407Z,8.23
2017-11-07T13:04:12.723Z,9.13
2017-11-07T13:06:40.260Z,8.67
2017-11-07T13:09:07.827Z,8.97
2017-11-07T13:11:35.368Z,9.50
2017-11-07T13:14:02.916Z,8.20
2017-11-07T13:16:31.249Z,8.70
2017-11-07T13:18:58.799Z,7.23
2017-11-07T13:21:26.338Z,9.23
2017-11-07T13:23:53.891Z,8.53
2017-11-07T13:26:21.419Z,8.57
2017-11-07T13:28:49.735Z,9.60
2017-11-07T13:31:17.267Z,8.40
2017-11-07T13:33:45.582Z,9.27
2017-11-07T13:36:13.119Z,9.20
2017-11-07T13:38:40.684Z,8.83
2017-11-07T13:41:08.207Z,11.00
2017-11-07T13:43:35.754Z,9.27
2017-11-07T13:46:03.291Z,8.90
2017-11-07T13:48:30.858Z,9.83
2017-11-07T13:50:58.399Z,10.50
2017-11-07T13:53:25.953Z,9.20
2017-11-07T13:55:53.480Z,8.40
2017-11-07T13:58:21.796Z,8.63
2017-11-07T14:00:49.332Z,9.30
2017-11-07T14:03:16.889Z,8.63
2017-11-07T14:05:44.419Z,8.93
2017-11-07T14:08:11.976Z,9.07
2017-11-07T14:10:39.508Z,10.20
2017-11-07T14:13:07.063Z,9.13
2017-11-07T14:15:34.591Z,8.40
2017-11-07T14:18:02.143Z,8.80
2017-11-07T14:20:29.679Z,9.30
2017-11-07T14:22:57.249Z,9.27
2017-11-07T14:25:25.540Z,9.80
2017-11-07T14:27:53.102Z,9.00
2017-11-07T14:30:20.638Z,9.53
2017-11-07T14:32:48.959Z,9.17
2017-11-07T14:35:16.483Z,8.93
2017-11-07T14:37:44.808Z,9.17
2017-11-07T14:40:12.357Z,10.40
2017-11-07T14:42:39.910Z,9.00
2017-11-07T14:45:07.446Z,9.27
2017-11-07T14:47:35.756Z,9.37
2017-11-07T14:50:03.291Z,10.77
2017-11-07T14:52:30.822Z,9.00
2017-11-07T14:54:58.376Z,9.03
2017-11-07T14:57:25.911Z,10.20
2017-11-07T14:59:53.463Z,10.20
2017-11-07T15:02:20.995Z,10.07
2017-11-07T15:04:48.560Z,9.77
2017-11-07T15:07:16.087Z,9.50
2017-11-07T15:09:43.649Z,9.63
2017-11-07T15:12:11.939Z,8.87
2017-11-07T15:14:40.273Z,10.53
2017-11-07T15:17:07.806Z,10.43
2017-11-07T15:19:35.357Z,9.30
2017-11-07T15:22:02.897Z,9.33
2017-11-07T15:24:30.462Z,9.73
2017-11-07T15:26:57.996Z,12.47
2017-11-07T15:29:25.556Z,10.03
2017-11-07T15:31:53.091Z,10.93
2017-11-07T15:34:20.662Z,12.90
2017-11-07T15:36:48.187Z,10.17
2017-11-07T15:39:15.752Z,10.73
2017-11-07T15:41:43.283Z,11.60
2017-11-07T15:44:10.839Z,11.13
2017-11-07T15:46:38.370Z,10.77
2017-11-07T15:49:05.919Z,11.13
2017-11-07T15:51:33.447Z,12.03
2017-11-07T15:54:01.004Z,11.73
2017-11-07T15:56:28.539Z,12.67
2017-11-07T15:58:56.103Z,13.23
2017-11-07T16:01:23.631Z,10.83
2017-11-07T16:03:51.192Z,13.20
2017-11-07T16:06:19.500Z,12.30
2017-11-07T16:08:47.077Z,12.40
2017-11-07T16:11:14.614Z,13.90
2017-11-07T16:13:42.163Z,12.77
2017-11-07T16:16:10.459Z,13.00
2017-11-07T16:18:38.020Z,13.20
2017-11-07T16:21:05.552Z,11.67
2017-11-07T16:23:33.881Z,12.33
2017-11-07T16:26:01.416Z,12.90
2017-11-07T16:28:28.981Z,12.83
2017-11-07T16:30:56.515Z,12.00
2017-11-07T16:33:24.849Z,13.50
2017-11-07T16:35:52.386Z,12.87
2017-11-07T16:38:19.939Z,12.93
2017-11-07T16:40:47.480Z,13.30
2017-11-07T16:43:15.079Z,12.67
2017-11-07T16:45:42.941Z,14.67
2017-11-07T16:48:10.507Z,12.93
2017-11-07T16:50:38.034Z,14.67
2017-11-07T16:53:05.569Z,15.13
2017-11-07T16:55:33.974Z,12.73
2017-11-07T16:58:01.511Z,14.80
2017-11-07T17:00:29.839Z,13.03
2017-11-07T17:02:57.374Z,14.60
2017-11-07T17:05:24.934Z,15.00
2017-11-07T17:07:52.467Z,13.63
2017-11-07T17:10:20.797Z,13.03
2017-11-07T17:12:48.329Z,15.87
2017-11-07T17:15:17.838Z,12.30
2017-11-07T17:17:45.366Z,13.33
2017-11-07T17:20:13.696Z,14.50
2017-11-07T17:22:41.230Z,13.83
2017-11-07T17:25:09.226Z,14.30
2017-11-07T17:27:36.768Z,14.40
2017-11-07T17:30:04.332Z,13.60
2017-11-07T17:32:31.870Z,15.40
2017-11-07T17:34:59.420Z,15.77
2017-11-07T17:37:27.715Z,13.10
2017-11-07T17:39:55.265Z,13.60
2017-11-07T17:42:22.804Z,14.53
2017-11-07T17:44:51.216Z,14.17
2017-11-07T17:47:18.744Z,13.50
2017-11-07T17:49:47.064Z,14.50
2017-11-07T17:52:14.607Z,16.23
2017-11-07T17:54:42.166Z,15.20
2017-11-07T17:57:09.694Z,12.90
2017-11-07T17:59:37.411Z,15.20
2017-11-07T18:02:04.937Z,15.80
2017-11-07T18:04:33.263Z,16.77
2017-11-07T18:07:00.799Z,15.10
2017-11-07T18:09:28.376Z,16.07
2017-11-07T18:11:55.913Z,16.93
2017-11-07T18:14:23.485Z,17.37
2017-11-07T18:16:51.018Z,17.40
2017-11-07T18:19:19.339Z,16.77
2017-11-07T18:21:46.865Z,16.90
2017-11-07T18:24:14.422Z,17.50
2017-11-07T18:26:41.977Z,16.40
2017-11-07T18:29:09.562Z,15.60
2017-11-07T18:31:37.109Z,15.30
2017-11-07T18:34:04.674Z,15.00
2017-11-07T18:36:32.218Z,15.50
2017-11-07T18:38:59.850Z,14.73
2017-11-07T18:41:28.183Z,14.63
2017-11-07T18:43:55.815Z,15.03
2017-11-07T18:46:23.354Z,15.30
2017-11-07T18:48:51.364Z,16.73
2017-11-07T18:51:19.001Z,17.27
2017-11-07T18:53:46.574Z,16.30
2017-11-07T18:56:14.120Z,17.23
2017-11-07T18:58:41.692Z,16.70
2017-11-07T19:01:09.286Z,17.80
2017-11-07T19:03:36.820Z,17.50
2017-11-07T19:06:04.380Z,19.50
2017-11-07T19:08:31.916Z,18.63
2017-11-07T19:11:00.239Z,18.70
2017-11-07T19:13:27.767Z,19.47
2017-11-07T19:15:55.315Z,19.60
2017-11-07T19:18:23.622Z,20.13
2017-11-07T19:20:51.202Z,20.50
2017-11-07T19:23:18.808Z,18.60
2017-11-07T19:25:47.187Z,20.10
2017-11-07T19:28:15.485Z,20.60
2017-11-07T19:30:43.187Z,20.77
2017-11-07T19:33:10.980Z,21.43
2017-11-07T19:35:38.591Z,19.20
2017-11-07T19:38:06.195Z,18.63
2017-11-07T19:40:33.767Z,19.80
2017-11-07T19:43:02.072Z,19.07
2017-11-07T19:45:29.670Z,18.17
2017-11-07T19:47:57.209Z,18.83
2017-11-07T19:50:24.815Z,18.70
2017-11-07T19:52:52.366Z,19.13
2017-11-07T19:55:19.935Z,18.97
2017-11-07T19:57:47.467Z,17.63
2017-11-07T20:00:15.080Z,18.57
2017-11-07T20:02:42.698Z,18.40
2017-11-07T20:05:10.260Z,19.20
2017-11-07T20:07:37.903Z,19.33
2017-11-07T20:10:05.525Z,19.47
2017-11-07T20:12:33.913Z,17.83
2017-11-07T20:15:01.536Z,18.23
2017-11-07T20:17:29.091Z,19.83
2017-11-07T20:19:56.655Z,20.37
2017-11-07T20:22:24.224Z,20.00
2017-11-07T20:24:51.824Z,20.27
2017-11-07T20:27:19.401Z,21.53
2017-11-07T20:29:46.951Z,22.53
2017-11-07T20:32:14.491Z,20.37
2017-11-07T20:34:42.057Z,20.97
2017-11-07T20:37:09.615Z,18.80
2017-11-07T20:39:37.174Z,19.67
2017-11-07T20:42:04.709Z,19.40
2017-11-07T20:44:33.038Z,19.90
2017-11-07T20:47:00.568Z,20.10
2017-11-07T20:49:28.124Z,19.13
2017-11-07T20:51:56.419Z,20.70
2017-11-07T20:54:23.975Z,18.60
2017-11-07T20:56:51.510Z,19.57
2017-11-07T20:59:19.827Z,18.20
2017-11-07T21:01:47.365Z,18.37
2017-11-07T21:04:14.918Z,19.77
2017-11-07T21:06:43.202Z,19.67
2017-11-07T21:09:10.759Z,19.57
2017-11-07T21:11:38.296Z,18.97
2017-11-07T21:14:05.888Z,17.43
2017-11-07T21:16:33.423Z,18.17
2017-11-07T21:19:01.726Z,17.97
2017-11-07T21:21:29.291Z,20.30
2017-11-07T21:23:56.823Z,20.30
2017-11-07T21:26:25.143Z,19.73
2017-11-07T21:28:52.686Z,21.40
2017-11-07T21:31:20.248Z,21.20
2017-11-07T21:33:47.783Z,19.23
2017-11-07T21:36:16.111Z,19.90
2017-11-07T21:38:43.639Z,20.50
2017-11-07T21:41:11.264Z,19.93
2017-11-07T21:43:38.804Z,20.50
2017-11-07T21:46:06.363Z,21.60
2017-11-07T21:48:33.898Z,21.00
2017-11-07T21:51:01.457Z,21.03
2017-11-07T21:53:28.986Z,20.30
2017-11-07T21:55:57.307Z,19.30
2017-11-07T21:58:24.835Z,20.40
2017-11-07T22:00:52.395Z,19.83
2017-11-07T22:03:19.924Z,20.93
2017-11-07T22:05:48.256Z,18.83
2017-11-07T22:08:15.782Z,20.10
2017-11-07T22:10:46.286Z,18.73
2017-11-07T22:13:13.821Z,20.53
2017-11-07T22:15:42.187Z,18.90
2017-11-07T22:18:10.612Z,18.57
2017-11-07T22:20:39.854Z,19.70
2017-11-07T22:23:13.210Z,20.67
2017-11-07T22:25:43.738Z,21.53
2017-11-07T22:28:11.315Z,19.40
2017-11-07T22:51:41.369Z,20.30
2017-11-07T22:54:09.687Z,20.40
2017-11-07T22:56:37.260Z,22.37
2017-11-07T22:59:04.796Z,20.87
2017-11-07T23:01:52.037Z,19.87
2017-11-07T23:04:19.571Z,20.10
2017-11-07T23:06:47.191Z,19.80
2017-11-07T23:09:15.519Z,18.40
2017-11-07T23:11:43.079Z,18.43
2017-11-07T23:14:10.612Z,19.30
2017-11-07T23:16:38.934Z,20.10
2017-11-07T23:19:06.468Z,18.00
2017-11-07T23:21:34.024Z,20.33
2017-11-07T23:24:01.552Z,20.80
2017-11-07T23:26:29.928Z,20.17
2017-11-07T23:28:58.231Z,19.67
2017-11-07T23:31:25.794Z,22.13
2017-11-07T23:33:53.333Z,19.73
2017-11-07T23:36:21.651Z,20.87
2017-11-07T23:38:49.186Z,23.17
2017-11-07T23:41:16.747Z,22.73
2017-11-07T23:43:44.282Z,23.73
2017-11-07T23:46:12.604Z,23.97
2017-11-07T23:48:40.135Z,24.10
2017-11-07T23:51:08.446Z,23.80
2017-11-07T23:53:35.985Z,22.50
2017-11-07T23:56:03.548Z,21.63
2017-11-07T23:58:31.085Z,22.10
